createdAt,value
2023-03-12T00:01:22.222Z,5.90
2023-03-12T00:03:49.930Z,5.80
2023-03-12T00:06:19.348Z,5.90
2023-03-12T00:08:47.032Z,5.90
2023-03-12T00:11:17.672Z,5.90
2023-03-12T00:13:45.137Z,5.90
2023-03-12T00:16:15.142Z,5.80
2023-03-12T00:18:43.076Z,5.80
2023-03-12T00:21:10.838Z,5.80
2023-03-12T00:23:37.772Z,5.80
2023-03-12T00:26:11.180Z,5.80
2023-03-12T00:28:38.798Z,5.80
2023-03-12T00:31:27.192Z,5.80
2023-03-12T00:33:55.868Z,5.80
2023-03-12T00:36:26.982Z,5.80
2023-03-12T00:38:55.115Z,5.70
2023-03-12T00:41:23.491Z,5.70
2023-03-12T00:43:51.614Z,5.70
2023-03-12T00:46:19.467Z,5.70
2023-03-12T00:48:46.824Z,5.70
2023-03-12T00:51:13.736Z,5.60
2023-03-12T00:53:40.727Z,5.60
2023-03-12T00:56:07.868Z,5.60
2023-03-12T00:58:34.752Z,5.60
2023-03-12T01:01:01.837Z,5.60
2023-03-12T01:03:28.788Z,5.60
2023-03-12T01:05:55.753Z,5.50
2023-03-12T01:08:23.388Z,5.50
2023-03-12T01:10:50.679Z,5.50
2023-03-12T01:13:18.136Z,5.40
2023-03-12T01:15:45.176Z,5.40
2023-03-12T01:18:13.175Z,5.30
2023-03-12T01:20:41.020Z,5.30
2023-03-12T01:23:08.863Z,5.20
2023-03-12T01:25:36.653Z,5.20
2023-03-12T01:28:04.414Z,5.10
2023-03-12T01:30:31.632Z,5.10
2023-03-12T01:32:59.004Z,5.10
2023-03-12T01:35:26.277Z,5.10
2023-03-12T01:37:53.468Z,5.10
2023-03-12T01:40:25.543Z,5.00
2023-03-12T01:42:56.860Z,5.00
2023-03-12T01:46:04.853Z,5.00
2023-03-12T01:48:40.106Z,5.00
2023-03-12T01:51:11.225Z,4.90
2023-03-12T01:53:40.502Z,4.90
2023-03-12T01:56:08.959Z,4.90
2023-03-12T01:58:40.561Z,4.90
2023-03-12T02:01:07.563Z,4.80
2023-03-12T02:03:36.050Z,4.80
2023-03-12T02:06:10.089Z,4.80
2023-03-12T02:08:41.807Z,4.80
2023-03-12T02:11:08.922Z,4.80
2023-03-12T02:13:37.532Z,4.80
2023-03-12T02:16:05.096Z,4.80
2023-03-12T02:18:34.111Z,4.80
2023-03-12T02:21:24.402Z,4.80
2023-03-12T02:24:26.177Z,4.80
2023-03-12T02:26:53.221Z,4.70
2023-03-12T02:29:20.521Z,4.70
2023-03-12T02:31:53.046Z,4.70
2023-03-12T02:34:20.106Z,4.70
2023-03-12T02:36:48.546Z,4.60
2023-03-12T02:39:16.257Z,4.60
2023-03-12T02:41:53.799Z,4.60
2023-03-12T02:44:24.466Z,4.50
2023-03-12T02:46:56.439Z,4.50
2023-03-12T02:49:27.647Z,4.50
2023-03-12T02:51:55.029Z,4.40
2023-03-12T02:54:23.090Z,4.40
2023-03-12T02:56:50.913Z,4.30
2023-03-12T02:59:21.128Z,4.30
2023-03-12T03:01:59.957Z,4.30
2023-03-12T03:04:29.763Z,4.20
2023-03-12T03:06:57.131Z,4.20
2023-03-12T03:09:25.249Z,4.20
2023-03-12T03:11:52.469Z,4.20
2023-03-12T03:14:20.167Z,4.10
2023-03-12T03:16:50.436Z,4.10
2023-03-12T03:19:17.402Z,4.10
2023-03-12T03:21:44.476Z,4.10
2023-03-12T03:24:11.513Z,4.00
2023-03-12T03:26:38.545Z,4.00
2023-03-12T03:29:05.442Z,4.00
2023-03-12T03:31:32.568Z,4.00
2023-03-12T03:33:59.592Z,3.90
2023-03-12T03:36:27.120Z,3.90
2023-03-12T03:39:01.156Z,3.90
2023-03-12T03:41:30.185Z,3.90
2023-03-12T03:43:58.603Z,3.90
2023-03-12T03:46:26.671Z,3.80
2023-03-12T03:48:59.256Z,3.80
2023-03-12T03:51:27.241Z,3.80
2023-03-12T03:54:00.416Z,3.80
2023-03-12T03:56:27.896Z,3.80
2023-03-12T03:58:54.874Z,3.70
2023-03-12T04:01:22.684Z,3.70
2023-03-12T04:03:50.947Z,3.70
2023-03-12T04:06:18.417Z,3.70
2023-03-12T04:08:45.869Z,3.70
2023-03-12T04:11:21.080Z,3.60
2023-03-12T04:13:49.236Z,3.60
2023-03-12T04:16:18.752Z,3.60
2023-03-12T04:18:46.614Z,3.70
2023-03-12T04:21:15.320Z,3.60
2023-03-12T04:23:43.482Z,3.70
2023-03-12T04:26:12.466Z,3.70
2023-03-12T04:28:39.943Z,3.60
2023-03-12T04:31:08.962Z,3.60
2023-03-12T04:33:40.972Z,3.60
2023-03-12T04:36:09.674Z,3.60
2023-03-12T04:38:39.771Z,3.60
2023-03-12T04:41:12.447Z,3.60
2023-03-12T04:43:44.495Z,3.60
2023-03-12T04:46:12.128Z,3.60
2023-03-12T04:48:40.287Z,3.50
2023-03-12T04:51:07.356Z,3.50
2023-03-12T04:53:34.917Z,3.50
2023-03-12T04:56:02.704Z,3.50
2023-03-12T04:58:30.843Z,3.50
2023-03-12T05:00:58.160Z,3.50
2023-03-12T05:03:25.401Z,3.50
2023-03-12T05:05:52.412Z,3.50
2023-03-12T05:08:19.377Z,3.50
2023-03-12T05:10:46.877Z,3.50
2023-03-12T05:13:20.618Z,3.50
2023-03-12T05:15:50.704Z,3.50
2023-03-12T05:18:20.505Z,3.50
2023-03-12T05:20:57.254Z,3.40
2023-03-12T05:23:24.394Z,3.50
2023-03-12T05:25:51.314Z,3.40
2023-03-12T05:28:20.136Z,3.40
2023-03-12T05:30:47.288Z,3.40
2023-03-12T05:33:14.840Z,3.40
2023-03-12T05:35:41.732Z,3.40
2023-03-12T05:38:08.682Z,3.40
2023-03-12T05:40:35.604Z,3.40
2023-03-12T05:43:02.516Z,3.40
2023-03-12T05:45:29.506Z,3.40
2023-03-12T05:47:58.668Z,3.40
2023-03-12T05:50:27.556Z,3.40
2023-03-12T05:52:54.816Z,3.40
2023-03-12T05:55:21.724Z,3.40
2023-03-12T05:57:48.707Z,3.40
2023-03-12T06:00:16.455Z,3.40
2023-03-12T06:02:52.148Z,3.40
2023-03-12T06:05:19.607Z,3.40
2023-03-12T06:07:46.577Z,3.40
2023-03-12T06:10:13.601Z,3.40
2023-03-12T06:12:40.604Z,3.40
2023-03-12T06:15:08.084Z,3.40
2023-03-12T06:17:35.254Z,3.40
2023-03-12T06:20:02.293Z,3.40
2023-03-12T06:22:29.987Z,3.50
2023-03-12T06:24:56.964Z,3.50
2023-03-12T06:27:24.574Z,3.50
2023-03-12T06:29:51.497Z,3.50
2023-03-12T06:32:18.620Z,3.50
2023-03-12T06:34:45.812Z,3.50
2023-03-12T06:37:12.799Z,3.60
2023-03-12T06:39:40.182Z,3.60
2023-03-12T06:42:07.267Z,3.60
2023-03-12T06:44:34.214Z,3.60
2023-03-12T06:47:01.126Z,3.60
2023-03-12T06:49:32.088Z,3.70
2023-03-12T06:51:59.149Z,3.70
2023-03-12T06:54:26.044Z,3.70
2023-03-12T06:56:53.440Z,3.80
2023-03-12T06:59:21.735Z,3.80
2023-03-12T07:01:49.406Z,3.80
2023-03-12T07:04:16.364Z,3.90
2023-03-12T07:06:43.640Z,4.00
2023-03-12T07:09:10.622Z,4.00
2023-03-12T07:11:37.509Z,4.00
2023-03-12T07:14:04.418Z,4.10
2023-03-12T07:16:31.582Z,4.10
2023-03-12T07:18:59.031Z,4.20
2023-03-12T07:21:26.035Z,4.20
2023-03-12T07:23:53.482Z,4.20
2023-03-12T07:26:20.773Z,4.30
2023-03-12T07:28:47.914Z,4.30
2023-03-12T07:31:14.993Z,4.40
2023-03-12T07:33:42.203Z,4.40
2023-03-12T07:36:09.292Z,4.50
2023-03-12T07:38:36.330Z,4.50
2023-03-12T07:41:03.309Z,4.60
2023-03-12T07:43:30.473Z,4.60
2023-03-12T07:45:57.401Z,4.60
2023-03-12T07:48:24.381Z,4.70
2023-03-12T07:50:51.335Z,4.70
2023-03-12T07:53:18.506Z,4.80
2023-03-12T07:55:47.028Z,4.80
2023-03-12T07:58:15.997Z,4.90
2023-03-12T08:00:43.163Z,4.90
2023-03-12T08:03:10.482Z,4.90
2023-03-12T08:05:37.558Z,5.00
2023-03-12T08:08:04.563Z,5.00
2023-03-12T08:10:31.820Z,5.10
2023-03-12T08:12:58.843Z,5.10
2023-03-12T08:15:25.805Z,5.20
2023-03-12T08:17:52.781Z,5.20
2023-03-12T08:20:19.743Z,5.20
2023-03-12T08:22:46.638Z,5.30
2023-03-12T08:25:13.585Z,5.30
2023-03-12T08:27:40.513Z,5.40
2023-03-12T08:30:08.269Z,5.40
2023-03-12T08:32:35.251Z,5.50
2023-03-12T08:35:02.450Z,5.60
2023-03-12T08:37:30.320Z,5.60
2023-03-12T08:39:57.492Z,5.60
2023-03-12T08:42:24.386Z,5.70
2023-03-12T08:44:51.264Z,5.70
2023-03-12T08:47:18.160Z,5.80
2023-03-12T08:49:45.067Z,5.80
2023-03-12T08:52:11.934Z,5.90
2023-03-12T08:54:38.832Z,5.90
2023-03-12T08:57:05.712Z,5.90
2023-03-12T08:59:32.614Z,6.00
2023-03-12T09:01:59.546Z,6.10
2023-03-12T09:04:26.733Z,6.20
2023-03-12T09:06:53.615Z,6.30
2023-03-12T09:09:20.524Z,6.30
2023-03-12T09:11:47.404Z,6.40
2023-03-12T09:14:57.562Z,6.50
2023-03-12T09:17:02.214Z,6.60
2023-03-12T09:19:29.508Z,6.70
2023-03-12T09:21:56.438Z,6.80
2023-03-12T09:24:23.473Z,7.00
2023-03-12T09:26:50.668Z,7.10
2023-03-12T09:29:17.603Z,7.20
2023-03-12T09:31:44.572Z,7.30
2023-03-12T09:34:11.485Z,7.40
2023-03-12T09:36:38.373Z,7.50
2023-03-12T09:39:05.806Z,7.60
2023-03-12T09:41:39.724Z,7.70
2023-03-12T09:44:33.640Z,7.70
2023-03-12T09:47:08.752Z,7.80
2023-03-12T09:49:44.846Z,7.80
2023-03-12T09:52:24.831Z,7.90
2023-03-12T09:55:08.757Z,8.00
2023-03-12T09:57:35.655Z,8.00
2023-03-12T10:00:02.768Z,8.00
2023-03-12T10:02:53.081Z,8.10
2023-03-12T10:05:39.277Z,8.20
2023-03-12T10:08:32.887Z,8.30
2023-03-12T10:11:32.186Z,8.40
2023-03-12T10:14:26.153Z,8.50
2023-03-12T10:17:41.269Z,8.60
2023-03-12T10:20:32.274Z,8.70
2023-03-12T10:23:20.612Z,8.70
2023-03-12T10:26:00.475Z,8.80
2023-03-12T10:28:40.731Z,8.80
2023-03-12T10:31:26.572Z,8.80
2023-03-12T10:33:59.162Z,8.80
2023-03-12T10:36:35.705Z,8.80
2023-03-12T10:39:03.512Z,8.90
2023-03-12T10:41:35.078Z,8.90
2023-03-12T10:44:07.826Z,8.90
2023-03-12T10:46:37.684Z,9.00
2023-03-12T10:49:28.090Z,9.10
2023-03-12T10:52:02.751Z,9.10
2023-03-12T10:54:40.589Z,9.20
2023-03-12T10:57:09.298Z,9.30
2023-03-12T10:59:43.357Z,9.40
2023-03-12T11:02:32.631Z,9.40
2023-03-12T11:05:02.050Z,9.50
2023-03-12T11:07:32.620Z,9.60
2023-03-12T11:10:08.531Z,9.70
2023-03-12T11:12:39.724Z,9.70
2023-03-12T11:15:31.821Z,9.80
2023-03-12T11:18:26.387Z,9.90
2023-03-12T11:21:17.288Z,10.00
2023-03-12T11:23:57.622Z,10.10
2023-03-12T11:26:35.553Z,10.20
2023-03-12T11:29:06.367Z,10.20
2023-03-12T11:31:56.119Z,10.30
2023-03-12T11:34:28.726Z,10.40
2023-03-12T11:37:21.478Z,10.40
2023-03-12T11:40:24.241Z,10.50
2023-03-12T11:43:43.219Z,10.50
2023-03-12T11:46:40.780Z,10.60
2023-03-12T11:49:53.831Z,10.70
2023-03-12T11:52:57.539Z,10.70
2023-03-12T11:55:52.682Z,10.80
2023-03-12T11:59:08.226Z,10.80
2023-03-12T12:02:12.105Z,10.90
2023-03-12T12:05:19.125Z,11.00
2023-03-12T12:08:08.168Z,11.00
2023-03-12T12:10:53.244Z,11.10
2023-03-12T12:14:04.590Z,11.20
2023-03-12T12:17:20.352Z,11.20
2023-03-12T12:20:27.219Z,11.30
2023-03-12T12:23:25.262Z,11.40
2023-03-12T12:26:09.939Z,11.40
2023-03-12T12:29:13.969Z,11.50
2023-03-12T12:31:58.462Z,11.50
2023-03-12T12:35:05.374Z,11.50
2023-03-12T12:37:56.667Z,11.50
2023-03-12T12:41:13.183Z,11.40
2023-03-12T12:43:41.591Z,11.40
2023-03-12T12:46:17.719Z,11.30
2023-03-12T12:48:56.913Z,11.30
2023-03-12T12:51:30.646Z,11.20
2023-03-12T12:54:26.410Z,11.20
2023-03-12T12:57:16.349Z,11.20
2023-03-12T13:00:22.364Z,11.20
2023-03-12T13:02:49.726Z,11.20
2023-03-12T13:05:54.038Z,11.20
2023-03-12T13:08:42.269Z,11.20
2023-03-12T13:11:18.660Z,11.20
2023-03-12T13:13:54.189Z,11.20
2023-03-12T13:16:30.209Z,11.20
2023-03-12T13:19:13.649Z,11.30
2023-03-12T13:22:15.188Z,11.20
2023-03-12T13:25:24.089Z,11.20
2023-03-12T13:28:00.872Z,11.20
2023-03-12T13:30:33.512Z,11.10
2023-03-12T13:33:03.136Z,11.10
2023-03-12T13:35:38.979Z,11.00
2023-03-12T13:38:12.518Z,11.00
2023-03-12T13:41:03.249Z,10.90
2023-03-12T13:43:39.360Z,10.90
2023-03-12T13:46:42.428Z,10.90
2023-03-12T13:49:15.246Z,10.80
2023-03-12T13:51:55.854Z,10.80
2023-03-12T13:54:29.918Z,10.70
2023-03-12T13:57:11.913Z,10.70
2023-03-12T13:59:45.782Z,10.70
2023-03-12T14:02:37.044Z,10.70
2023-03-12T14:05:11.071Z,10.70
2023-03-12T14:07:58.127Z,10.70
2023-03-12T14:11:16.741Z,10.70
2023-03-12T14:14:24.192Z,10.70
2023-03-12T14:16:57.414Z,10.70
2023-03-12T14:19:27.960Z,10.70
2023-03-12T14:22:00.061Z,10.70
2023-03-12T14:24:35.272Z,10.70
2023-03-12T14:27:05.771Z,10.70
2023-03-12T14:29:45.648Z,10.70
2023-03-12T14:32:21.160Z,10.70
2023-03-12T14:35:17.574Z,10.70
2023-03-12T14:38:05.418Z,10.60
2023-03-12T14:41:00.705Z,10.60
2023-03-12T14:43:32.533Z,10.60
2023-03-12T14:46:04.814Z,10.60
2023-03-12T14:48:37.138Z,10.50
2023-03-12T14:51:06.831Z,10.50
2023-03-12T14:53:37.330Z,10.50
2023-03-12T14:56:13.899Z,10.40
2023-03-12T14:58:49.623Z,10.40
2023-03-12T15:01:32.447Z,10.40
2023-03-12T15:04:03.003Z,10.40
2023-03-12T15:06:32.832Z,10.30
2023-03-12T15:09:04.273Z,10.30
2023-03-12T15:11:34.880Z,10.30
2023-03-12T15:14:07.275Z,10.20
2023-03-12T15:16:35.092Z,10.20
2023-03-12T15:19:03.753Z,10.20
2023-03-12T15:21:34.835Z,10.10
2023-03-12T15:24:02.922Z,10.00
2023-03-12T15:26:34.381Z,10.00
2023-03-12T15:29:27.263Z,9.90
2023-03-12T15:31:58.189Z,9.90
2023-03-12T15:34:27.908Z,9.90
2023-03-12T15:36:54.958Z,9.80
2023-03-12T15:39:32.996Z,9.80
2023-03-12T15:42:10.376Z,9.70
2023-03-12T15:44:59.914Z,9.70
2023-03-12T15:47:33.185Z,9.70
2023-03-12T15:50:42.673Z,9.60
2023-03-12T15:53:12.159Z,9.60
2023-03-12T15:55:39.514Z,9.60
2023-03-12T15:58:31.766Z,9.50
2023-03-12T16:01:16.958Z,9.50
2023-03-12T16:03:45.820Z,9.40
2023-03-12T16:06:18.879Z,9.40
2023-03-12T16:08:50.527Z,9.30
2023-03-12T16:11:30.871Z,9.30
2023-03-12T16:14:29.742Z,9.20
2023-03-12T16:16:56.664Z,9.20
2023-03-12T16:19:26.055Z,9.10
2023-03-12T16:21:52.990Z,9.00
2023-03-12T16:24:19.860Z,9.00
2023-03-12T16:26:53.922Z,8.90
2023-03-12T16:29:22.232Z,8.90
2023-03-12T16:31:55.631Z,8.90
2023-03-12T16:34:22.970Z,8.90
2023-03-12T16:36:50.298Z,8.80
2023-03-12T16:39:18.913Z,8.80
2023-03-12T16:41:46.665Z,8.80
2023-03-12T16:44:21.471Z,8.80
2023-03-12T16:46:48.718Z,8.70
2023-03-12T16:49:18.062Z,8.70
2023-03-12T16:51:45.043Z,8.70
2023-03-12T16:54:12.556Z,8.70
2023-03-12T16:56:44.947Z,8.70
2023-03-12T16:59:25.927Z,8.60
2023-03-12T17:01:53.486Z,8.60
2023-03-12T17:04:20.498Z,8.50
2023-03-12T17:06:47.414Z,8.50
2023-03-12T17:09:14.335Z,8.40
2023-03-12T17:11:41.290Z,8.30
2023-03-12T17:14:22.020Z,8.30
2023-03-12T17:16:49.508Z,8.20
2023-03-12T17:19:16.874Z,8.10
2023-03-12T17:21:44.267Z,8.10
2023-03-12T17:24:14.050Z,8.00
2023-03-12T17:26:43.011Z,8.00
2023-03-12T17:29:09.911Z,8.00
2023-03-12T17:31:37.597Z,8.00
2023-03-12T17:34:04.802Z,8.00
2023-03-12T17:36:31.691Z,8.00
2023-03-12T17:38:58.623Z,8.00
2023-03-12T17:41:27.348Z,8.00
2023-03-12T17:43:58.396Z,8.00
2023-03-12T17:46:25.359Z,8.00
2023-03-12T17:48:52.710Z,8.00
2023-03-12T17:51:21.048Z,8.00
2023-03-12T17:53:48.233Z,7.90
2023-03-12T17:56:17.905Z,7.90
2023-03-12T17:58:45.598Z,7.90
2023-03-12T18:01:13.531Z,7.90
2023-03-12T18:03:40.649Z,7.80
2023-03-12T18:06:07.918Z,7.80
2023-03-12T18:08:34.817Z,7.70
2023-03-12T18:11:02.955Z,7.70
2023-03-12T18:13:30.785Z,7.60
2023-03-12T18:15:58.600Z,7.60
2023-03-12T18:18:26.881Z,7.60
2023-03-12T18:20:54.260Z,7.50
2023-03-12T18:23:21.210Z,7.40
2023-03-12T18:25:48.089Z,7.40
2023-03-12T18:28:15.339Z,7.30
2023-03-12T18:30:44.854Z,7.20
2023-03-12T18:33:11.696Z,7.20
2023-03-12T18:35:38.622Z,7.20
2023-03-12T18:38:05.498Z,7.10
2023-03-12T18:40:35.113Z,7.10
2023-03-12T18:43:02.868Z,7.00
2023-03-12T18:45:30.387Z,6.90
2023-03-12T18:47:57.283Z,6.90
2023-03-12T18:50:24.273Z,6.90
2023-03-12T18:52:51.154Z,6.80
2023-03-12T18:55:18.331Z,6.80
2023-03-12T18:57:47.609Z,6.70
2023-03-12T19:00:17.739Z,6.70
2023-03-12T19:02:47.978Z,6.60
2023-03-12T19:05:15.876Z,6.60
2023-03-12T19:07:43.606Z,6.60
2023-03-12T19:10:11.992Z,6.70
2023-03-12T19:12:50.842Z,6.70
2023-03-12T19:15:19.240Z,6.70
2023-03-12T19:17:46.235Z,6.70
2023-03-12T19:20:13.309Z,6.60
2023-03-12T19:22:40.266Z,6.60
2023-03-12T19:25:07.951Z,6.50
2023-03-12T19:27:34.866Z,6.50
2023-03-12T19:30:01.831Z,6.50
2023-03-12T19:32:40.577Z,6.50
2023-03-12T19:35:11.749Z,6.50
2023-03-12T19:37:38.685Z,6.50
2023-03-12T19:40:06.586Z,6.60
2023-03-12T19:42:33.710Z,6.60
2023-03-12T19:45:00.653Z,6.50
2023-03-12T19:47:28.071Z,6.40
2023-03-12T19:49:54.950Z,6.30
2023-03-12T19:52:21.865Z,6.30
2023-03-12T19:55:02.959Z,6.20
2023-03-12T19:57:32.423Z,6.20
2023-03-12T19:59:59.326Z,6.20
2023-03-12T20:02:26.536Z,6.20
2023-03-12T20:04:55.215Z,6.10
2023-03-12T20:07:22.578Z,6.10
2023-03-12T20:09:49.659Z,6.10
2023-03-12T20:12:16.572Z,6.10
2023-03-12T20:14:43.466Z,6.10
2023-03-12T20:17:12.091Z,6.10
2023-03-12T20:19:39.163Z,6.20
2023-03-12T20:22:06.976Z,6.20
2023-03-12T20:24:33.966Z,6.20
2023-03-12T20:27:01.094Z,6.20
2023-03-12T20:29:27.973Z,6.20
2023-03-12T20:31:54.990Z,6.20
2023-03-12T20:34:22.186Z,6.20
2023-03-12T20:36:49.099Z,6.20
2023-03-12T20:39:15.999Z,6.20
2023-03-12T20:41:42.897Z,6.20
2023-03-12T20:44:09.894Z,6.20
2023-03-12T20:46:36.782Z,6.30
2023-03-12T20:49:03.669Z,6.30
2023-03-12T20:51:30.624Z,6.40
2023-03-12T20:53:57.871Z,6.40
2023-03-12T20:56:24.772Z,6.40
2023-03-12T20:58:52.244Z,6.50
2023-03-12T21:01:19.221Z,6.50
2023-03-12T21:03:46.217Z,6.60
2023-03-12T21:06:13.856Z,6.60
2023-03-12T21:08:40.748Z,6.70
2023-03-12T21:11:08.494Z,6.70
2023-03-12T21:13:36.676Z,6.70
2023-03-12T21:16:06.607Z,6.80
2023-03-12T21:18:33.646Z,6.80
2023-03-12T21:21:08.370Z,6.80
2023-03-12T21:23:36.237Z,6.90
2023-03-12T21:26:08.969Z,6.90
2023-03-12T21:28:36.253Z,6.90
2023-03-12T21:31:15.656Z,7.00
2023-03-12T21:33:42.939Z,7.00
2023-03-12T21:36:13.178Z,7.00
2023-03-12T21:38:42.717Z,7.10
2023-03-12T21:41:16.018Z,7.10
2023-03-12T21:43:44.481Z,7.10
2023-03-12T21:46:18.889Z,7.10
2023-03-12T21:48:48.014Z,7.20
2023-03-12T21:51:17.221Z,7.20
2023-03-12T21:53:44.406Z,7.20
2023-03-12T21:56:11.824Z,7.30
2023-03-12T21:58:38.941Z,7.30
2023-03-12T22:01:13.703Z,7.30
2023-03-12T22:03:41.993Z,7.30
2023-03-12T22:06:10.169Z,7.30
2023-03-12T22:08:37.645Z,7.40
2023-03-12T22:11:05.925Z,7.40
2023-03-12T22:13:32.798Z,7.40
2023-03-12T22:16:02.737Z,7.40
2023-03-12T22:18:30.227Z,7.50
2023-03-12T22:21:04.586Z,7.50
2023-03-12T22:23:31.853Z,7.50
2023-03-12T22:26:06.347Z,7.50
2023-03-12T22:28:33.444Z,7.50
2023-03-12T22:31:03.532Z,7.60
2023-03-12T22:33:30.870Z,7.60
2023-03-12T22:35:58.083Z,7.60
2023-03-12T22:38:25.432Z,7.60
2023-03-12T22:40:54.913Z,7.60
2023-03-12T22:43:22.435Z,7.70
2023-03-12T22:45:53.980Z,7.70
2023-03-12T22:48:20.880Z,7.70
2023-03-12T22:50:54.437Z,7.80
2023-03-12T22:53:21.466Z,7.80
2023-03-12T22:56:04.732Z,7.80
2023-03-12T22:58:31.987Z,7.80
2023-03-12T23:01:05.020Z,7.90
2023-03-12T23:03:33.877Z,7.90
2023-03-12T23:06:01.742Z,7.90
2023-03-12T23:08:29.582Z,8.00
2023-03-12T23:10:59.939Z,8.00
2023-03-12T23:13:29.456Z,8.00
2023-03-12T23:16:05.551Z,8.00
2023-03-12T23:18:33.150Z,8.10
2023-03-12T23:21:03.818Z,8.10
2023-03-12T23:23:30.879Z,8.10
2023-03-12T23:26:00.146Z,8.20
2023-03-12T23:28:28.745Z,8.20
2023-03-12T23:31:04.822Z,8.30
2023-03-12T23:33:32.923Z,8.30
2023-03-12T23:36:02.925Z,8.30
2023-03-12T23:38:31.307Z,8.30
2023-03-12T23:41:15.708Z,8.30
2023-03-12T23:43:43.158Z,8.30
2023-03-12T23:46:11.810Z,8.40
2023-03-12T23:48:40.334Z,8.40
2023-03-12T23:51:13.917Z,8.50
2023-03-12T23:53:43.896Z,8.50
2023-03-12T23:56:14.907Z,8.50
2023-03-12T23:58:42.858Z,8.50
